Time;durP1;ratioP1;P1;durP2;ratioP2;P2;SDS_P1;SDS_P2;PMS_P1;PMS_P2;Temp;Humidity;BMP_temperature;BMP_pressure;BME280_temperature;BME280_humidity;BME280_pressure;Samples;Min_cycle;Max_cycle;Signal;HPM_P1;HPM_P2
2023/12/12 00:01:42;;;;;;;;;22.33;20.33;;;;;;;;5080530;27;45925;-76
2023/12/12 00:04:07;;;;;;;;;21.67;20.33;;;;;;;;5080345;27;45444;-76
2023/12/12 00:06:33;;;;;;;;;21.33;21.33;;;;;;;;5080438;27;45306;-76
2023/12/12 00:08:58;;;;;;;;;18.00;18.00;;;;;;;;5096282;27;45316;-76
2023/12/12 00:11:23;;;;;;;;;21.00;21.00;;;;;;;;5080450;27;45318;-76
2023/12/12 00:13:48;;;;;;;;;23.67;21.33;;;;;;;;5080130;27;46203;-77
2023/12/12 00:16:14;;;;;;;;;17.33;16.00;;;;;;;;5080260;27;45241;-76
2023/12/12 00:18:39;;;;;;;;;19.67;17.33;;;;;;;;5080244;27;45388;-76
2023/12/12 00:21:04;;;;;;;;;17.67;17.00;;;;;;;;5080253;28;45449;-76
2023/12/12 00:23:30;;;;;;;;;17.00;17.00;;;;;;;;5095773;27;46906;-76
2023/12/12 00:25:55;;;;;;;;;16.67;14.67;;;;;;;;5095917;27;45259;-76
2023/12/12 00:28:20;;;;;;;;;16.67;15.33;;;;;;;;5095832;27;45416;-74
2023/12/12 00:30:45;;;;;;;;;16.00;16.00;;;;;;;;5079542;27;45251;-76
2023/12/12 00:33:10;;;;;;;;;19.33;19.33;;;;;;;;5080033;27;45300;-76
2023/12/12 00:35:36;;;;;;;;;16.67;16.67;;;;;;;;5079743;27;45272;-76
2023/12/12 00:38:01;;;;;;;;;16.00;15.33;;;;;;;;5080167;28;45195;-76
2023/12/12 00:40:26;;;;;;;;;18.00;17.33;;;;;;;;5079968;27;45466;-76
2023/12/12 00:42:52;;;;;;;;;18.33;16.67;;;;;;;;5080024;28;45302;-76
2023/12/12 00:45:17;;;;;;;;;17.33;16.00;;;;;;;;5078518;28;45324;-76
2023/12/12 00:47:42;;;;;;;;;18.33;16.67;;;;;;;;5080060;27;45300;-76
2023/12/12 00:50:07;;;;;;;;;20.33;17.33;;;;;;;;5095276;27;45904;-76
2023/12/12 00:52:34;;;;;;;;;18.00;17.00;;;;;;;;5078494;28;47439;-76
2023/12/12 00:54:59;;;;;;;;;16.00;15.33;;;;;;;;5095461;27;45356;-76
2023/12/12 00:57:25;;;;;;;;;14.67;14.67;;;;;;;;5079820;27;45286;-76
2023/12/12 00:59:50;;;;;;;;;15.00;15.00;;;;;;;;5079787;28;45451;-76
2023/12/12 01:02:16;;;;;;;;;20.00;17.33;;;;;;;;5061308;28;45910;-76
2023/12/12 01:04:41;;;;;;;;;22.67;17.00;;;;;;;;5079414;28;45354;-76
2023/12/12 01:07:06;;;;;;;;;17.00;16.00;;;;;;;;5079783;28;45516;-76
2023/12/12 01:09:31;;;;;;;;;20.33;18.67;;;;;;;;5079760;28;45175;-76
2023/12/12 01:11:56;;;;;;;;;19.33;18.00;;;;;;;;5079523;28;45447;-76
2023/12/12 01:14:22;;;;;;;;;14.00;14.00;;;;;;;;5078261;28;45273;-76
2023/12/12 01:16:47;;;;;;;;;20.33;17.33;;;;;;;;5079817;28;45205;-76
2023/12/12 01:19:12;;;;;;;;;18.00;17.00;;;;;;;;5079120;28;45220;-76
2023/12/12 01:21:37;;;;;;;;;16.00;13.67;;;;;;;;5079397;28;46253;-76
2023/12/12 01:24:02;;;;;;;;;15.50;14.25;;;;;;;;5061351;28;45296;-76
2023/12/12 01:26:27;;;;;;;;;17.67;15.33;;;;;;;;5079514;28;45216;-76
2023/12/12 01:28:54;;;;;;;;;17.00;16.67;;;;;;;;5079136;28;45489;-76
2023/12/12 01:31:19;;;;;;;;;17.33;15.33;;;;;;;;5079289;28;45263;-76
2023/12/12 01:33:44;;;;;;;;;18.67;16.67;;;;;;;;5079146;28;45245;-76
2023/12/12 01:36:10;;;;;;;;;19.67;18.00;;;;;;;;5061164;28;45410;-76
2023/12/12 01:38:35;;;;;;;;;17.00;16.67;;;;;;;;5078929;28;45274;-76
2023/12/12 01:41:00;;;;;;;;;16.00;14.00;;;;;;;;5078876;28;47428;-76
2023/12/12 01:43:28;;;;;;;;;15.33;15.33;;;;;;;;5080578;28;45244;-76
2023/12/12 01:45:54;;;;;;;;;16.67;16.67;;;;;;;;5081593;28;45347;-76
2023/12/12 01:48:20;;;;;;;;;16.33;16.33;;;;;;;;5063334;28;46288;-76
2023/12/12 01:50:45;;;;;;;;;18.33;18.33;;;;;;;;5082151;28;45415;-75
2023/12/12 01:53:11;;;;;;;;;16.67;15.33;;;;;;;;5082016;28;45313;-76
2023/12/12 01:55:36;;;;;;;;;18.33;16.67;;;;;;;;5081786;28;45287;-76
2023/12/12 01:58:01;;;;;;;;;14.67;14.00;;;;;;;;5074255;28;45952;-76
2023/12/12 02:00:27;;;;;;;;;14.67;14.00;;;;;;;;5098312;27;48247;-76
2023/12/12 02:02:52;;;;;;;;;17.67;15.33;;;;;;;;5082392;28;45269;-76
2023/12/12 02:05:17;;;;;;;;;19.00;17.00;;;;;;;;5082317;27;45238;-76
2023/12/12 02:07:43;;;;;;;;;16.67;15.67;;;;;;;;5082383;27;45199;-76
2023/12/12 02:10:09;;;;;;;;;14.67;14.67;;;;;;;;5082242;27;45969;-76
2023/12/12 02:12:34;;;;;;;;;20.67;17.00;;;;;;;;5082049;27;45239;-76
2023/12/12 02:14:59;;;;;;;;;19.00;17.00;;;;;;;;5080780;28;45389;-76
2023/12/12 02:17:24;;;;;;;;;17.00;16.00;;;;;;;;5097931;27;46929;-76
2023/12/12 02:19:50;;;;;;;;;18.67;16.00;;;;;;;;5097390;27;47327;-76
2023/12/12 02:22:15;;;;;;;;;17.33;17.33;;;;;;;;5082124;27;45235;-76
2023/12/12 02:24:40;;;;;;;;;17.33;15.33;;;;;;;;5082360;27;45201;-76
2023/12/12 02:27:05;;;;;;;;;13.33;11.00;;;;;;;;5081941;27;45475;-76
2023/12/12 02:29:31;;;;;;;;;15.00;14.00;;;;;;;;5081964;27;45467;-76
2023/12/12 02:31:56;;;;;;;;;15.00;13.67;;;;;;;;5097906;27;45295;-76
2023/12/12 02:34:21;;;;;;;;;14.67;14.67;;;;;;;;5082126;27;45361;-76
2023/12/12 02:36:46;;;;;;;;;14.00;13.00;;;;;;;;5097758;27;47044;-76
2023/12/12 02:39:12;;;;;;;;;11.67;11.33;;;;;;;;5097169;27;47380;-76
2023/12/12 02:41:37;;;;;;;;;13.67;12.00;;;;;;;;5081846;27;45338;-76
2023/12/12 02:44:04;;;;;;;;;9.00;9.00;;;;;;;;5082165;27;45398;-76
2023/12/12 02:46:29;;;;;;;;;13.33;13.33;;;;;;;;5081663;27;46163;-76
2023/12/12 02:48:54;;;;;;;;;12.67;12.00;;;;;;;;5096918;27;46887;-76
2023/12/12 02:51:19;;;;;;;;;15.00;13.00;;;;;;;;5081936;27;45404;-76
2023/12/12 02:53:44;;;;;;;;;11.33;11.33;;;;;;;;5097254;27;45252;-76
2023/12/12 02:56:09;;;;;;;;;12.33;11.00;;;;;;;;5081713;27;45656;-76
2023/12/12 02:58:35;;;;;;;;;12.67;11.00;;;;;;;;5081330;27;46220;-76
2023/12/12 03:01:00;;;;;;;;;8.33;8.33;;;;;;;;5080333;28;45461;-76
2023/12/12 03:03:25;;;;;;;;;10.67;9.33;;;;;;;;5063133;28;45273;-76
2023/12/12 03:05:50;;;;;;;;;10.67;9.00;;;;;;;;5079996;28;45469;-76
2023/12/12 03:08:15;;;;;;;;;12.67;11.00;;;;;;;;5081364;28;46030;-76
2023/12/12 03:10:41;;;;;;;;;9.67;9.33;;;;;;;;5080013;28;45334;-76
2023/12/12 03:13:06;;;;;;;;;9.00;9.00;;;;;;;;5080341;28;45305;-76
2023/12/12 03:15:31;;;;;;;;;9.00;9.00;;;;;;;;5079795;28;46051;-76
2023/12/12 03:17:56;;;;;;;;;8.67;8.67;;;;;;;;5081396;28;45388;-76
2023/12/12 03:20:22;;;;;;;;;10.67;8.00;;;;;;;;5081141;28;45321;-76
2023/12/12 03:22:47;;;;;;;;;9.00;8.00;;;;;;;;5081113;28;45330;-75
2023/12/12 03:25:13;;;;;;;;;7.67;7.67;;;;;;;;5079677;28;46039;-76
2023/12/12 03:27:38;;;;;;;;;10.67;10.67;;;;;;;;5062273;28;48060;-76
2023/12/12 03:30:03;;;;;;;;;5.00;5.00;;;;;;;;5062034;28;45364;-76
2023/12/12 03:32:29;;;;;;;;;5.00;4.33;;;;;;;;5081356;28;45463;-76
2023/12/12 03:34:54;;;;;;;;;8.67;7.00;;;;;;;;5080698;28;45236;-76
2023/12/12 03:37:19;;;;;;;;;7.00;7.00;;;;;;;;5062625;28;46985;-76
2023/12/12 03:39:44;;;;;;;;;8.00;6.00;;;;;;;;5080853;28;45387;-76
2023/12/12 03:42:09;;;;;;;;;7.00;7.00;;;;;;;;5081178;28;45343;-76
2023/12/12 03:44:35;;;;;;;;;5.67;5.67;;;;;;;;5080856;28;45470;-76
2023/12/12 03:47:00;;;;;;;;;6.00;6.00;;;;;;;;5079258;28;46889;-76
2023/12/12 03:49:25;;;;;;;;;6.00;5.67;;;;;;;;5061969;28;45593;-76
2023/12/12 03:51:50;;;;;;;;;6.67;6.00;;;;;;;;5080955;28;45275;-76
2023/12/12 03:54:16;;;;;;;;;7.00;6.00;;;;;;;;5080749;28;45146;-76
2023/12/12 03:56:41;;;;;;;;;6.00;6.00;;;;;;;;5080677;28;45190;-76
2023/12/12 03:59:06;;;;;;;;;9.00;7.00;;;;;;;;5080756;27;45413;-76
2023/12/12 04:01:31;;;;;;;;;7.00;7.00;;;;;;;;5080805;27;45241;-76
2023/12/12 04:03:56;;;;;;;;;7.67;6.67;;;;;;;;5080502;27;45263;-76
2023/12/12 04:06:22;;;;;;;;;7.00;7.00;;;;;;;;5079628;27;45667;-76
2023/12/12 04:08:47;;;;;;;;;7.00;7.00;;;;;;;;5080381;27;45339;-76
2023/12/12 04:11:12;;;;;;;;;7.33;7.33;;;;;;;;5080740;27;45491;-76
2023/12/12 04:13:37;;;;;;;;;7.00;7.00;;;;;;;;5079153;28;47281;-76
2023/12/12 04:16:03;;;;;;;;;7.33;6.33;;;;;;;;5078934;28;47320;-76
2023/12/12 04:18:28;;;;;;;;;6.33;5.33;;;;;;;;5078602;28;45389;-76
2023/12/12 04:20:53;;;;;;;;;7.00;5.75;;;;;;;;5096285;27;45261;-76
2023/12/12 04:23:19;;;;;;;;;5.67;5.33;;;;;;;;5079996;27;45298;-76
2023/12/12 04:25:44;;;;;;;;;3.33;3.33;;;;;;;;5079277;27;45535;-76
2023/12/12 04:28:09;;;;;;;;;1.67;1.67;;;;;;;;5080219;27;45314;-76
2023/12/12 04:30:34;;;;;;;;;7.33;6.33;;;;;;;;5096099;27;45397;-76
2023/12/12 04:32:59;;;;;;;;;7.00;7.00;;;;;;;;5080220;28;45303;-76
2023/12/12 04:35:24;;;;;;;;;6.33;6.00;;;;;;;;5095611;27;48057;-76
2023/12/12 04:37:50;;;;;;;;;7.00;7.00;;;;;;;;5080180;27;45394;-76
2023/12/12 04:40:15;;;;;;;;;6.67;5.67;;;;;;;;5080128;27;45369;-76
2023/12/12 04:42:42;;;;;;;;;7.00;5.00;;;;;;;;5095573;27;46415;-76
2023/12/12 04:45:08;;;;;;;;;6.33;5.33;;;;;;;;5079381;27;45565;-76
2023/12/12 04:47:33;;;;;;;;;4.00;4.00;;;;;;;;5079356;28;45346;-76
2023/12/12 04:49:58;;;;;;;;;6.67;6.67;;;;;;;;5061397;28;45470;-76
2023/12/12 04:52:23;;;;;;;;;7.33;7.33;;;;;;;;5078570;28;45942;-76
2023/12/12 04:54:48;;;;;;;;;7.67;6.33;;;;;;;;5061409;28;47407;-76
2023/12/12 04:57:13;;;;;;;;;6.33;6.33;;;;;;;;5079746;28;45301;-76
2023/12/12 04:59:38;;;;;;;;;7.00;7.00;;;;;;;;5080122;27;45164;-76
2023/12/12 05:02:04;;;;;;;;;4.00;4.00;;;;;;;;5079573;27;45647;-77
2023/12/12 05:04:29;;;;;;;;;4.00;4.00;;;;;;;;5061123;28;47030;-76
2023/12/12 05:06:54;;;;;;;;;8.00;7.00;;;;;;;;5079125;28;45566;-76
2023/12/12 05:09:20;;;;;;;;;7.33;7.33;;;;;;;;5079064;28;45244;-76
2023/12/12 05:11:45;;;;;;;;;4.33;3.67;;;;;;;;5079763;28;45272;-76
2023/12/12 05:14:10;;;;;;;;;7.00;7.00;;;;;;;;5079372;28;46260;-76
2023/12/12 05:16:36;;;;;;;;;7.00;7.00;;;;;;;;5078388;28;45651;-76
2023/12/12 05:19:01;;;;;;;;;6.33;6.33;;;;;;;;5083064;28;45401;-76
2023/12/12 05:21:27;;;;;;;;;3.67;3.67;;;;;;;;5082995;28;45408;-76
2023/12/12 05:23:52;;;;;;;;;6.33;5.33;;;;;;;;5083009;28;45369;-76
2023/12/12 05:26:18;;;;;;;;;4.67;4.67;;;;;;;;5083166;28;45368;-76
2023/12/12 05:28:43;;;;;;;;;8.33;6.33;;;;;;;;5083112;28;45313;-76
2023/12/12 05:31:08;;;;;;;;;6.00;6.00;;;;;;;;5082915;28;45329;-76
2023/12/12 05:33:33;;;;;;;;;6.33;6.33;;;;;;;;5064468;28;46974;-75
2023/12/12 05:35:59;;;;;;;;;7.33;5.67;;;;;;;;5082901;28;45369;-75
2023/12/12 05:38:24;;;;;;;;;8.33;5.67;;;;;;;;5082783;28;45374;-75
2023/12/12 05:40:49;;;;;;;;;4.00;3.00;;;;;;;;5081081;28;46088;-75
2023/12/12 05:43:14;;;;;;;;;5.33;5.00;;;;;;;;5081237;28;46976;-75
2023/12/12 05:45:39;;;;;;;;;5.33;4.33;;;;;;;;5081415;28;45349;-75
2023/12/12 05:48:05;;;;;;;;;3.00;3.00;;;;;;;;5082806;28;45478;-75
2023/12/12 05:50:30;;;;;;;;;5.67;4.67;;;;;;;;5081835;28;45317;-75
2023/12/12 05:52:56;;;;;;;;;7.33;4.33;;;;;;;;5063926;28;47508;-75
2023/12/12 05:55:21;;;;;;;;;4.00;4.00;;;;;;;;5082176;28;45331;-74
2023/12/12 05:57:48;;;;;;;;;3.00;3.00;;;;;;;;5088642;27;45364;-75
2023/12/12 06:00:13;;;;;;;;;3.33;2.33;;;;;;;;5082512;28;45446;-75
2023/12/12 06:02:38;;;;;;;;;6.00;5.00;;;;;;;;5082515;27;46043;-75
2023/12/12 06:05:07;;;;;;;;;4.33;3.00;;;;;;;;5098000;27;45345;-75
2023/12/12 06:07:32;;;;;;;;;4.00;4.00;;;;;;;;5082421;27;45409;-74
2023/12/12 06:09:57;;;;;;;;;2.67;2.67;;;;;;;;5098032;27;45983;-75
2023/12/12 06:12:24;;;;;;;;;3.00;3.00;;;;;;;;5082482;27;46182;-75
2023/12/12 06:14:49;;;;;;;;;2.33;2.33;;;;;;;;5082025;27;45468;-75
2023/12/12 06:17:14;;;;;;;;;3.00;3.00;;;;;;;;5098179;27;45373;-75
2023/12/12 06:19:40;;;;;;;;;3.00;3.00;;;;;;;;5081776;27;45330;-75
2023/12/12 06:22:06;;;;;;;;;3.00;3.00;;;;;;;;5097861;27;48346;-75
2023/12/12 06:24:31;;;;;;;;;2.33;2.33;;;;;;;;5082001;27;45428;-75
2023/12/12 06:26:57;;;;;;;;;2.00;2.00;;;;;;;;5082096;28;45207;-75
2023/12/12 06:29:23;;;;;;;;;3.67;3.33;;;;;;;;5081342;28;45170;-75
2023/12/12 06:31:48;;;;;;;;;2.00;2.00;;;;;;;;5081836;28;45409;-75
2023/12/12 06:34:13;;;;;;;;;4.33;3.00;;;;;;;;5081839;28;45329;-74
2023/12/12 06:36:38;;;;;;;;;3.67;3.00;;;;;;;;5080997;28;45202;-75
2023/12/12 06:39:03;;;;;;;;;3.00;2.67;;;;;;;;5081815;28;45210;-75
2023/12/12 06:41:29;;;;;;;;;1.67;1.67;;;;;;;;5063348;28;47191;-75
2023/12/12 06:43:54;;;;;;;;;2.67;1.33;;;;;;;;5063430;28;45272;-75
2023/12/12 06:46:19;;;;;;;;;2.67;2.00;;;;;;;;5081851;28;45566;-75
2023/12/12 06:48:44;;;;;;;;;4.00;4.00;;;;;;;;5080525;28;45540;-75
2023/12/12 06:51:10;;;;;;;;;1.67;1.67;;;;;;;;5080818;28;46215;-75
2023/12/12 06:53:35;;;;;;;;;2.67;2.67;;;;;;;;5063387;28;45252;-75
2023/12/12 06:56:00;;;;;;;;;2.67;2.67;;;;;;;;5081569;28;45162;-74
2023/12/12 06:58:26;;;;;;;;;2.00;2.00;;;;;;;;5080870;28;45435;-75
2023/12/12 07:00:51;;;;;;;;;4.00;3.67;;;;;;;;5097390;27;47383;-75
2023/12/12 07:03:18;;;;;;;;;3.33;3.33;;;;;;;;5096895;27;45393;-75
2023/12/12 07:05:43;;;;;;;;;6.00;5.00;;;;;;;;5081599;27;45438;-76
2023/12/12 07:08:08;;;;;;;;;5.67;5.00;;;;;;;;5081315;27;45227;-75
2023/12/12 07:10:33;;;;;;;;;4.33;4.33;;;;;;;;5081461;27;46323;-76
2023/12/12 07:12:59;;;;;;;;;6.25;6.25;;;;;;;;5081525;27;45493;-76
2023/12/12 07:15:26;;;;;;;;;7.00;7.00;;;;;;;;5096708;27;45441;-76
2023/12/12 07:17:51;;;;;;;;;5.67;5.67;;;;;;;;5081387;27;45380;-76
2023/12/12 07:20:17;;;;;;;;;4.33;4.33;;;;;;;;5080783;27;46925;-76
2023/12/12 07:22:43;;;;;;;;;7.33;5.33;;;;;;;;5081295;28;45425;-76
2023/12/12 07:25:08;;;;;;;;;6.33;6.33;;;;;;;;5082706;27;45292;-77
2023/12/12 07:27:33;;;;;;;;;7.00;7.00;;;;;;;;5080985;28;45274;-76
2023/12/12 07:29:59;;;;;;;;;7.67;5.00;;;;;;;;5080192;28;45306;-76
2023/12/12 07:32:26;;;;;;;;;9.33;8.00;;;;;;;;5081021;28;45292;-76
2023/12/12 07:34:51;;;;;;;;;8.67;8.00;;;;;;;;5079674;28;45261;-75
2023/12/12 07:37:17;;;;;;;;;11.00;8.00;;;;;;;;5072356;28;45643;-76
2023/12/12 07:39:42;;;;;;;;;6.33;5.67;;;;;;;;5078018;28;45536;-75
2023/12/12 07:42:07;;;;;;;;;6.33;5.00;;;;;;;;5078345;28;45314;-75
2023/12/12 07:44:33;;;;;;;;;9.00;8.33;;;;;;;;5079229;28;45335;-76
2023/12/12 07:47:01;;;;;;;;;10.00;10.00;;;;;;;;5079307;28;45468;-76
2023/12/12 07:49:26;;;;;;;;;8.33;8.33;;;;;;;;5060882;28;47157;-76
2023/12/12 07:51:51;;;;;;;;;5.67;5.67;;;;;;;;5078782;28;45264;-77
2023/12/12 07:54:16;;;;;;;;;5.00;5.00;;;;;;;;5079916;28;45456;-76
2023/12/12 07:56:41;;;;;;;;;8.00;7.00;;;;;;;;5077929;28;46343;-77
2023/12/12 07:59:08;;;;;;;;;7.33;6.67;;;;;;;;5092440;27;47100;-77
2023/12/12 08:01:33;;;;;;;;;8.00;8.00;;;;;;;;5079981;28;45427;-76
2023/12/12 08:03:58;;;;;;;;;7.33;7.33;;;;;;;;5080032;28;45289;-76
2023/12/12 08:06:24;;;;;;;;;10.67;9.67;;;;;;;;5079371;27;45723;-76
2023/12/12 08:08:49;;;;;;;;;10.00;9.00;;;;;;;;5082808;27;45944;-77
2023/12/12 08:11:15;;;;;;;;;9.00;9.00;;;;;;;;5079141;28;45497;-77
2023/12/12 08:13:40;;;;;;;;;8.67;7.33;;;;;;;;5061480;28;45375;-76
2023/12/12 08:16:05;;;;;;;;;8.33;8.33;;;;;;;;5079902;28;45301;-75
2023/12/12 08:18:31;;;;;;;;;6.33;6.33;;;;;;;;5060525;28;47447;-76
2023/12/12 08:20:56;;;;;;;;;7.67;7.67;;;;;;;;5060901;28;45306;-76
2023/12/12 08:23:21;;;;;;;;;6.33;6.33;;;;;;;;5079760;28;45207;-76
2023/12/12 08:25:47;;;;;;;;;7.00;7.00;;;;;;;;5079402;28;45489;-76
2023/12/12 08:28:13;;;;;;;;;10.00;7.00;;;;;;;;5077897;28;46080;-76
2023/12/12 08:30:38;;;;;;;;;7.00;6.33;;;;;;;;5078612;28;45368;-75
2023/12/12 08:33:03;;;;;;;;;8.00;8.00;;;;;;;;5079029;28;45276;-76
2023/12/12 08:35:29;;;;;;;;;6.00;6.00;;;;;;;;5078262;28;45531;-76
2023/12/12 08:37:54;;;;;;;;;9.33;7.33;;;;;;;;5078380;28;45405;-76
2023/12/12 08:40:19;;;;;;;;;10.67;10.33;;;;;;;;5060626;28;45626;-77
2023/12/12 08:42:44;;;;;;;;;9.00;9.00;;;;;;;;5079397;28;45225;-76
2023/12/12 08:45:09;;;;;;;;;8.67;8.33;;;;;;;;5078995;28;45339;-76
2023/12/12 08:47:36;;;;;;;;;15.00;12.33;;;;;;;;5071396;28;46673;-77
2023/12/12 08:50:03;;;;;;;;;7.00;7.00;;;;;;;;5060554;28;45437;-77
2023/12/12 08:52:28;;;;;;;;;7.00;7.00;;;;;;;;5074710;28;45442;-76
2023/12/12 08:54:53;;;;;;;;;7.67;7.67;;;;;;;;5077867;28;45434;-76
2023/12/12 08:57:19;;;;;;;;;7.00;7.00;;;;;;;;5069150;28;48330;-75
2023/12/12 08:59:44;;;;;;;;;9.67;7.33;;;;;;;;5057932;28;45233;-76
2023/12/12 09:02:09;;;;;;;;;9.00;8.33;;;;;;;;5064265;28;45398;-76
2023/12/12 09:04:36;;;;;;;;;8.67;8.67;;;;;;;;5078298;28;45520;-77
2023/12/12 09:07:01;;;;;;;;;8.67;7.67;;;;;;;;5077911;28;45468;-77
2023/12/12 09:09:27;;;;;;;;;7.67;7.67;;;;;;;;5079019;28;45371;-76
2023/12/12 09:11:52;;;;;;;;;7.00;7.00;;;;;;;;5068687;28;45406;-76
2023/12/12 09:14:18;;;;;;;;;5.33;5.00;;;;;;;;5079231;28;45556;-75
2023/12/12 09:16:43;;;;;;;;;8.33;7.33;;;;;;;;5079201;28;45243;-76
2023/12/12 09:19:09;;;;;;;;;6.00;6.00;;;;;;;;5077989;28;45379;-75
2023/12/12 09:21:35;;;;;;;;;10.00;8.67;;;;;;;;5076432;28;45670;-75
2023/12/12 09:24:00;;;;;;;;;6.33;6.33;;;;;;;;5059254;28;45393;-76
2023/12/12 09:26:25;;;;;;;;;7.00;7.00;;;;;;;;5078479;28;45312;-76
2023/12/12 09:28:50;;;;;;;;;6.00;6.00;;;;;;;;5077982;28;45401;-75
2023/12/12 09:31:23;;;;;;;;;7.00;7.00;;;;;;;;5078882;28;45452;-76
2023/12/12 09:33:48;;;;;;;;;6.00;6.00;;;;;;;;5077057;28;45382;-76
2023/12/12 09:36:14;;;;;;;;;9.00;5.00;;;;;;;;5076157;28;45592;-76
2023/12/12 09:38:39;;;;;;;;;3.00;3.00;;;;;;;;5077507;28;45449;-76
2023/12/12 09:41:05;;;;;;;;;4.67;4.67;;;;;;;;5059093;28;45418;-77
2023/12/12 09:43:33;;;;;;;;;5.75;4.50;;;;;;;;5077370;28;45371;-76
2023/12/12 09:45:59;;;;;;;;;5.00;5.00;;;;;;;;5058980;28;47207;-77
2023/12/12 09:48:24;;;;;;;;;4.00;4.00;;;;;;;;5077104;28;45564;-77
2023/12/12 09:50:50;;;;;;;;;6.67;6.67;;;;;;;;5078579;28;45352;-77
2023/12/12 09:53:16;;;;;;;;;7.00;7.00;;;;;;;;5059831;28;45857;-76
2023/12/12 09:55:42;;;;;;;;;5.00;5.00;;;;;;;;5072487;27;45795;-76
2023/12/12 09:58:07;;;;;;;;;7.00;7.00;;;;;;;;5077545;28;45740;-76
2023/12/12 10:00:32;;;;;;;;;4.33;4.33;;;;;;;;5078610;28;45495;-77
2023/12/12 10:02:58;;;;;;;;;4.67;4.33;;;;;;;;5063334;28;46820;-77
2023/12/12 10:05:25;;;;;;;;;4.00;3.00;;;;;;;;5080850;28;45400;-77
2023/12/12 10:07:50;;;;;;;;;3.67;3.67;;;;;;;;5079931;28;46341;-76
2023/12/12 10:10:15;;;;;;;;;9.00;7.50;;;;;;;;5081128;28;45298;-76
2023/12/12 10:12:41;;;;;;;;;6.00;6.00;;;;;;;;5081490;28;45352;-77
2023/12/12 10:15:25;;;;;;;;;5.00;5.00;;;;;;;;5080628;28;45302;-76
2023/12/12 10:17:55;;;;;;;;;2.67;2.67;;;;;;;;5058487;28;45485;-77
2023/12/12 10:20:25;;;;;;;;;4.67;4.67;;;;;;;;5080517;28;45394;-76
2023/12/12 10:22:51;;;;;;;;;4.00;4.00;;;;;;;;5074166;28;45693;-77
2023/12/12 10:25:17;;;;;;;;;2.50;2.50;;;;;;;;5078139;28;45832;-76
2023/12/12 10:27:42;;;;;;;;;1.25;1.25;;;;;;;;5079446;28;45315;-76
2023/12/12 10:30:08;;;;;;;;;2.75;2.00;;;;;;;;5080096;28;45291;-76
2023/12/12 10:32:36;;;;;;;;;1.00;1.00;;;;;;;;5079978;28;45366;-76
2023/12/12 10:35:01;;;;;;;;;1.50;1.00;;;;;;;;5061716;28;47442;-76
2023/12/12 10:37:26;;;;;;;;;1.50;0.00;;;;;;;;5078710;28;46565;-77
2023/12/12 10:39:52;;;;;;;;;0.00;0.00;;;;;;;;5073116;28;45898;-76
2023/12/12 10:42:17;;;;;;;;;0.75;0.75;;;;;;;;5078019;28;45646;-76
2023/12/12 10:44:45;;;;;;;;;0.00;0.00;;;;;;;;5077057;28;47252;-76
2023/12/12 10:47:13;;;;;;;;;0.00;0.00;;;;;;;;5080056;28;45430;-76
2023/12/12 10:49:42;;;;;;;;;0.00;0.00;;;;;;;;5061514;28;45561;-76
2023/12/12 10:52:08;;;;;;;;;0.75;0.75;;;;;;;;5078401;27;45575;-76
2023/12/12 10:54:35;;;;;;;;;2.00;0.00;;;;;;;;5078176;28;45916;-76
2023/12/12 10:57:01;;;;;;;;;1.00;1.00;;;;;;;;5077634;28;45550;-76
2023/12/12 10:59:27;;;;;;;;;0.00;0.00;;;;;;;;5079412;28;45480;-76
2023/12/12 11:01:52;;;;;;;;;2.00;2.00;;;;;;;;5078077;27;47363;-77
2023/12/12 11:04:18;;;;;;;;;3.50;2.00;;;;;;;;5061242;28;47245;-78
2023/12/12 11:06:43;;;;;;;;;3.00;1.75;;;;;;;;5078578;28;45347;-77
2023/12/12 11:09:13;;;;;;;;;1.00;1.00;;;;;;;;5080566;28;45337;-76
2023/12/12 11:11:39;;;;;;;;;0.75;0.75;;;;;;;;5079589;28;45997;-76
2023/12/12 11:14:07;;;;;;;;;2.00;2.00;;;;;;;;5080909;28;46095;-76
2023/12/12 11:16:32;;;;;;;;;1.50;1.50;;;;;;;;5080895;28;45586;-77
2023/12/12 11:18:59;;;;;;;;;3.75;2.75;;;;;;;;5079438;28;45384;-76
2023/12/12 11:21:43;;;;;;;;;3.25;1.25;;;;;;;;5080999;28;45311;-76
2023/12/12 11:24:09;;;;;;;;;6.00;6.00;;;;;;;;5061897;28;47313;-76
2023/12/12 11:26:34;;;;;;;;;3.25;3.25;;;;;;;;5080182;28;45223;-77
2023/12/12 11:28:59;;;;;;;;;3.00;3.00;;;;;;;;5062574;28;45275;-77
2023/12/12 11:31:28;;;;;;;;;3.25;2.25;;;;;;;;5080973;28;45156;-77
2023/12/12 11:34:07;;;;;;;;;0.00;0.00;;;;;;;;5061940;28;47080;-76
2023/12/12 11:36:49;;;;;;;;;2.25;2.25;;;;;;;;5080886;28;45264;-76
2023/12/12 11:39:26;;;;;;;;;4.50;2.00;;;;;;;;5080830;28;45330;-76
2023/12/12 11:41:52;;;;;;;;;5.00;3.50;;;;;;;;5080313;28;45543;-76
2023/12/12 11:44:18;;;;;;;;;5.00;3.50;;;;;;;;5080286;28;45427;-76
2023/12/12 11:46:43;;;;;;;;;2.25;1.25;;;;;;;;5080554;28;45341;-76
2023/12/12 11:49:21;;;;;;;;;0.50;0.50;;;;;;;;5079483;28;45390;-77
2023/12/12 11:51:48;;;;;;;;;1.00;0.75;;;;;;;;5065224;28;45240;-77
2023/12/12 11:54:19;;;;;;;;;0.00;0.00;;;;;;;;5072238;28;47264;-77
2023/12/12 11:56:44;;;;;;;;;2.00;1.00;;;;;;;;5059364;28;45273;-77
2023/12/12 11:59:09;;;;;;;;;0.00;0.00;;;;;;;;5075505;28;45599;-76
2023/12/12 12:01:34;;;;;;;;;0.75;0.75;;;;;;;;5061307;28;46016;-79
2023/12/12 12:04:00;;;;;;;;;1.00;0.00;;;;;;;;5077718;28;46106;-78
2023/12/12 12:06:25;;;;;;;;;1.25;0.00;;;;;;;;5080308;27;45275;-79
2023/12/12 12:08:51;;;;;;;;;1.00;0.75;;;;;;;;5080174;28;45323;-78
2023/12/12 12:11:16;;;;;;;;;3.00;1.00;;;;;;;;5079648;27;45495;-77
2023/12/12 12:13:42;;;;;;;;;3.75;3.75;;;;;;;;5079849;28;45451;-78
2023/12/12 12:16:10;;;;;;;;;1.00;1.00;;;;;;;;5061540;28;45397;-76
2023/12/12 12:18:36;;;;;;;;;2.50;2.50;;;;;;;;5080062;28;45312;-76
2023/12/12 12:21:05;;;;;;;;;2.25;2.25;;;;;;;;5079747;28;45493;-77
2023/12/12 12:23:32;;;;;;;;;2.00;2.00;;;;;;;;5079319;28;46073;-78
2023/12/12 12:26:00;;;;;;;;;1.00;1.00;;;;;;;;5079195;28;45275;-77
2023/12/12 12:28:32;;;;;;;;;2.00;2.00;;;;;;;;5078617;28;45298;-78
2023/12/12 12:31:00;;;;;;;;;2.50;2.50;;;;;;;;5079147;28;45489;-77
2023/12/12 12:33:35;;;;;;;;;2.67;2.67;;;;;;;;5078998;28;45384;-78
2023/12/12 12:36:01;;;;;;;;;2.00;1.75;;;;;;;;5060751;28;45695;-77
2023/12/12 12:38:27;;;;;;;;;2.50;1.50;;;;;;;;5077840;28;45666;-78
2023/12/12 12:40:52;;;;;;;;;2.00;2.00;;;;;;;;5076643;28;45577;-78
2023/12/12 12:43:18;;;;;;;;;1.00;0.75;;;;;;;;5078227;28;47038;-79
2023/12/12 12:45:45;;;;;;;;;3.75;2.50;;;;;;;;5079033;28;45402;-79
2023/12/12 12:48:16;;;;;;;;;1.50;1.50;;;;;;;;5079429;28;45289;-80
2023/12/12 12:50:44;;;;;;;;;2.75;2.00;;;;;;;;5079054;28;45316;-80
2023/12/12 12:53:09;;;;;;;;;3.33;3.00;;;;;;;;5079324;27;46065;-79
2023/12/12 12:55:35;;;;;;;;;1.00;1.00;;;;;;;;5094587;27;45279;-78
2023/12/12 12:58:00;;;;;;;;;5.00;3.67;;;;;;;;5084973;27;45446;-78
2023/12/12 13:00:26;;;;;;;;;4.00;4.00;;;;;;;;5078108;27;46569;-78
2023/12/12 13:03:11;;;;;;;;;2.25;2.25;;;;;;;;5077902;28;47357;-79
2023/12/12 13:05:36;;;;;;;;;1.75;1.75;;;;;;;;5062588;28;45442;-78
2023/12/12 13:08:17;;;;;;;;;1.67;1.67;;;;;;;;5078301;28;45353;-77
2023/12/12 13:17:38;;;;;;;;;0.75;0.75;;;;;;;;5076777;28;45419;-77
2023/12/12 13:20:45;;;;;;;;;0.00;0.00;;;;;;;;5080741;27;45587;-76
2023/12/12 13:23:58;;;;;;;;;;;;;;;;;;;;;
2023/12/12 13:27:00;;;;;;;;;0.00;0.00;;;;;;;;5014057;28;75546;-77
2023/12/12 13:29:56;;;;;;;;;0.00;0.00;;;;;;;;5016234;28;45385;-75
2023/12/12 13:35:58;;;;;;;;;0.00;0.00;;;;;;;;4984180;28;45313;-76
2023/12/12 13:38:59;;;;;;;;;0.00;0.00;;;;;;;;4995868;28;45704;-76
2023/12/12 13:42:09;;;;;;;;;1.50;0.00;;;;;;;;4996764;28;45322;-75
2023/12/12 13:44:34;;;;;;;;;0.00;0.00;;;;;;;;4984326;28;45347;-76
2023/12/12 13:46:59;;;;;;;;;0.00;0.00;;;;;;;;5023564;28;45583;-75
2023/12/12 13:49:24;;;;;;;;;1.00;1.00;;;;;;;;5061849;28;45365;-76
2023/12/12 13:51:49;;;;;;;;;0.00;0.00;;;;;;;;5062271;28;45286;-76
2023/12/12 13:54:15;;;;;;;;;0.00;0.00;;;;;;;;5077959;28;45311;-75
2023/12/12 13:56:40;;;;;;;;;1.00;0.33;;;;;;;;5064189;28;45306;-75
2023/12/12 13:59:05;;;;;;;;;0.00;0.00;;;;;;;;5082493;27;45455;-76
2023/12/12 14:01:30;;;;;;;;;2.00;0.00;;;;;;;;5082366;27;45577;-76
2023/12/12 14:03:55;;;;;;;;;0.00;0.00;;;;;;;;5082626;27;45341;-75
2023/12/12 14:06:20;;;;;;;;;2.00;2.00;;;;;;;;5098189;27;45864;-76
2023/12/12 14:08:46;;;;;;;;;0.00;0.00;;;;;;;;5082165;27;45443;-76
2023/12/12 14:11:12;;;;;;;;;0.33;0.33;;;;;;;;5082197;27;45325;-77
2023/12/12 14:13:37;;;;;;;;;0.67;0.67;;;;;;;;5082309;27;45307;-76
2023/12/12 14:16:02;;;;;;;;;3.00;1.67;;;;;;;;5082212;27;45439;-76
2023/12/12 14:18:27;;;;;;;;;3.00;1.00;;;;;;;;5097147;27;47523;-76
2023/12/12 14:20:52;;;;;;;;;1.75;1.75;;;;;;;;5082095;27;45156;-76
2023/12/12 14:23:18;;;;;;;;;1.00;1.00;;;;;;;;5082185;27;45554;-77
2023/12/12 14:25:44;;;;;;;;;0.50;0.50;;;;;;;;5080731;27;45312;-77
2023/12/12 14:28:09;;;;;;;;;1.67;1.00;;;;;;;;5081076;28;45346;-76
2023/12/12 14:30:34;;;;;;;;;1.00;1.00;;;;;;;;5080768;27;45217;-76
2023/12/12 14:32:59;;;;;;;;;2.67;2.00;;;;;;;;5081188;28;45161;-77
2023/12/12 14:35:25;;;;;;;;;2.00;1.50;;;;;;;;5081263;28;45255;-76
2023/12/12 14:37:51;;;;;;;;;3.75;2.75;;;;;;;;5081827;28;45333;-76
2023/12/12 14:40:16;;;;;;;;;4.00;1.00;;;;;;;;5080886;28;45611;-77
2023/12/12 14:42:41;;;;;;;;;3.50;0.25;;;;;;;;5081502;28;45305;-76
2023/12/12 14:45:07;;;;;;;;;3.25;2.75;;;;;;;;5075241;28;45769;-76